Amanda Park, Washington
Current Conditions -  °F | °C
As of 12:38 AM on Monday 26 Jan 2015 (Local Time) from KHQM Reporting Station
Haze Haze  
Wind Chill: 41°   Ceiling: 200
Heat Index: 47°   Visibility: 0.75mi
Dew Point: 47°   Wind: 13mph
Humidity: 100%   Direction: 70°ENE
Pressure: 29.92"   Gusts: NA
Location:  47.46°N, 123.89°W
Report Text: KHQM 260838Z AUTO 07011KT 3/4SM BR VV002 08/08 A2992 RMK AO2 T00830083
Loading
Personal Weather Stations






























Interactive Weather Map New forecast layout! Learn more

10-Day Weather Forecast

Advertisements
Track Severe Weather on mobile